createdAt,value
2019-02-02T00:01:13.506Z,11.38
2019-02-02T00:03:42.375Z,11.83
2019-02-02T00:06:10.339Z,12.40
2019-02-02T00:08:39.577Z,12.33
2019-02-02T00:11:06.878Z,12.90
2019-02-02T00:13:36.098Z,12.85
2019-02-02T00:16:05.185Z,13.70
2019-02-02T00:18:33.666Z,14.10
2019-02-02T00:21:01.847Z,13.72
2019-02-02T00:23:30.626Z,14.30
2019-02-02T00:25:59.440Z,11.88
2019-02-02T00:28:27.605Z,15.13
2019-02-02T00:30:56.515Z,15.40
2019-02-02T00:33:24.350Z,16.23
2019-02-02T00:35:52.898Z,15.98
2019-02-02T00:38:20.720Z,15.03
2019-02-02T00:40:48.158Z,16.57
2019-02-02T00:43:16.623Z,14.98
2019-02-02T00:45:45.411Z,15.88
2019-02-02T00:48:14.070Z,16.12
2019-02-02T00:50:42.346Z,15.90
2019-02-02T00:53:10.967Z,16.97
2019-02-02T00:55:38.818Z,14.15
2019-02-02T00:58:07.426Z,14.83
2019-02-02T01:00:37.824Z,14.90
2019-02-02T01:03:05.575Z,14.50
2019-02-02T01:05:32.819Z,14.30
2019-02-02T01:08:01.085Z,13.15
2019-02-02T01:10:31.246Z,14.83
2019-02-02T01:12:59.946Z,13.95
2019-02-02T01:15:28.665Z,15.75
2019-02-02T01:17:57.282Z,15.40
2019-02-02T01:20:25.895Z,14.93
2019-02-02T01:22:54.178Z,16.07
2019-02-02T01:25:23.162Z,15.72
2019-02-02T01:27:51.402Z,15.30
2019-02-02T01:30:20.548Z,16.77
2019-02-02T01:32:49.098Z,16.55
2019-02-02T01:35:17.655Z,17.55
2019-02-02T01:37:45.934Z,15.72
2019-02-02T01:40:16.789Z,16.90
2019-02-02T01:42:58.536Z,17.92
2019-02-02T01:45:26.141Z,18.35
2019-02-02T01:47:55.062Z,19.73
2019-02-02T01:50:24.137Z,17.57
2019-02-02T01:52:51.351Z,17.60
2019-02-02T01:55:18.831Z,18.52
2019-02-02T01:57:46.234Z,17.40
2019-02-02T02:00:16.102Z,17.05
2019-02-02T02:02:43.266Z,16.97
2019-02-02T02:05:11.522Z,17.55
2019-02-02T02:07:40.180Z,18.85
2019-02-02T02:10:09.391Z,18.67
2019-02-02T02:12:37.621Z,18.15
2019-02-02T02:15:07.654Z,18.17
2019-02-02T02:17:37.227Z,18.30
2019-02-02T02:20:05.942Z,17.50
2019-02-02T02:22:40.962Z,17.85
2019-02-02T02:25:04.562Z,16.90
2019-02-02T02:27:31.774Z,17.67
2019-02-02T02:30:00.116Z,19.37
2019-02-02T02:32:27.425Z,17.77
2019-02-02T02:34:55.730Z,19.60
2019-02-02T02:37:23.890Z,19.05
2019-02-02T02:39:52.150Z,19.20
2019-02-02T02:42:20.626Z,20.30
2019-02-02T02:44:48.843Z,20.52
2019-02-02T02:47:17.010Z,20.88
2019-02-02T02:49:45.776Z,18.25
2019-02-02T02:52:14.561Z,19.30
2019-02-02T02:54:42.421Z,19.35
2019-02-02T02:57:09.887Z,19.55
2019-02-02T02:59:38.362Z,19.25
2019-02-02T03:02:06.613Z,19.73
2019-02-02T03:04:35.430Z,19.10
2019-02-02T03:07:04.121Z,20.05
2019-02-02T03:09:31.879Z,19.27
2019-02-02T03:12:00.134Z,21.07
2019-02-02T03:14:28.459Z,18.67
2019-02-02T03:16:55.866Z,20.70
2019-02-02T03:19:28.130Z,21.02
2019-02-02T03:21:55.300Z,19.23
2019-02-02T03:24:22.606Z,20.57
2019-02-02T03:26:49.788Z,20.75
2019-02-02T03:29:16.867Z,19.55
2019-02-02T03:31:48.448Z,20.65
2019-02-02T03:34:15.185Z,19.48
2019-02-02T03:36:42.693Z,21.07
2019-02-02T03:39:11.173Z,21.02
2019-02-02T03:41:39.650Z,20.95
2019-02-02T03:44:07.935Z,19.65
2019-02-02T03:46:36.505Z,20.12
2019-02-02T03:49:05.103Z,21.80
2019-02-02T03:51:32.272Z,20.30
2019-02-02T03:54:08.179Z,21.15
2019-02-02T03:56:30.722Z,22.35
2019-02-02T03:59:06.691Z,22.30
2019-02-02T04:01:30.216Z,23.77
2019-02-02T04:03:58.595Z,21.75
2019-02-02T04:06:26.873Z,23.55
2019-02-02T04:08:55.559Z,23.20
2019-02-02T04:11:22.723Z,20.88
2019-02-02T04:13:50.892Z,21.45
2019-02-02T04:16:19.044Z,21.68
2019-02-02T04:18:47.505Z,23.47
2019-02-02T04:21:15.702Z,22.35
2019-02-02T04:23:44.879Z,21.10
2019-02-02T04:26:13.285Z,20.95
2019-02-02T04:28:41.490Z,19.12
2019-02-02T04:31:10.491Z,21.05
2019-02-02T04:33:39.268Z,20.35
2019-02-02T04:36:08.013Z,22.25
2019-02-02T04:38:36.583Z,22.10
2019-02-02T04:41:04.243Z,19.82
2019-02-02T04:43:33.151Z,18.85
2019-02-02T04:46:00.899Z,20.88
2019-02-02T04:48:32.418Z,21.23
2019-02-02T04:50:59.327Z,23.65
2019-02-02T04:53:27.062Z,22.25
2019-02-02T04:55:54.673Z,23.22
2019-02-02T04:58:22.297Z,23.18
2019-02-02T05:00:49.562Z,22.90
2019-02-02T05:03:18.127Z,22.22
2019-02-02T05:05:46.387Z,20.65
2019-02-02T05:08:15.056Z,22.67
2019-02-02T05:10:43.817Z,22.07
2019-02-02T05:13:11.690Z,21.87
2019-02-02T05:15:40.115Z,24.55
2019-02-02T05:18:07.353Z,21.93
2019-02-02T05:20:35.549Z,22.73
2019-02-02T05:23:03.803Z,20.82
2019-02-02T05:25:31.967Z,20.72
2019-02-02T05:28:00.390Z,21.52
2019-02-02T05:30:29.314Z,22.20
2019-02-02T05:32:57.502Z,23.60
2019-02-02T05:35:25.889Z,23.38
2019-02-02T05:37:54.576Z,23.30
2019-02-02T05:40:22.379Z,24.37
2019-02-02T05:42:50.974Z,23.32
2019-02-02T05:45:20.159Z,24.82
2019-02-02T05:47:48.817Z,22.80
2019-02-02T05:50:18.946Z,22.82
2019-02-02T05:52:47.755Z,22.87
2019-02-02T05:55:17.048Z,23.83
2019-02-02T05:57:45.442Z,22.93
2019-02-02T06:00:18.337Z,24.82
2019-02-02T06:02:46.864Z,22.50
2019-02-02T06:05:15.749Z,21.95
2019-02-02T06:07:43.966Z,21.82
2019-02-02T06:10:13.632Z,21.10
2019-02-02T06:12:42.485Z,21.82
2019-02-02T06:15:11.767Z,22.87
2019-02-02T06:17:39.094Z,22.90
2019-02-02T06:20:08.836Z,22.42
2019-02-02T06:22:36.998Z,22.32
2019-02-02T06:25:06.817Z,24.47
2019-02-02T06:27:33.972Z,24.45
2019-02-02T06:30:04.309Z,23.65
2019-02-02T06:32:32.971Z,23.47
2019-02-02T06:35:00.379Z,23.20
2019-02-02T06:37:28.773Z,23.83
2019-02-02T06:39:57.187Z,25.32
2019-02-02T06:42:26.118Z,24.72
2019-02-02T06:44:54.298Z,22.70
2019-02-02T06:47:22.626Z,24.43
2019-02-02T06:49:50.876Z,23.65
2019-02-02T06:52:19.146Z,23.65
2019-02-02T06:54:47.319Z,24.75
2019-02-02T06:57:15.490Z,25.30
2019-02-02T06:59:43.651Z,25.05
2019-02-02T07:02:11.834Z,23.98
2019-02-02T07:04:40.958Z,24.25
2019-02-02T07:07:09.025Z,24.27
2019-02-02T07:09:37.278Z,24.87
2019-02-02T07:12:05.812Z,24.75
2019-02-02T07:14:33.982Z,25.10
2019-02-02T07:17:02.126Z,25.40
2019-02-02T07:19:30.390Z,24.10
2019-02-02T07:21:57.702Z,27.45
2019-02-02T07:24:27.198Z,27.32
2019-02-02T07:26:55.354Z,27.30
2019-02-02T07:29:23.531Z,27.32
2019-02-02T07:31:51.928Z,26.68
2019-02-02T07:34:20.142Z,28.20
2019-02-02T07:36:48.631Z,26.48
2019-02-02T07:39:16.899Z,26.82
2019-02-02T07:41:45.182Z,27.30
2019-02-02T07:44:13.450Z,25.60
2019-02-02T07:46:41.887Z,25.60
2019-02-02T07:49:10.106Z,26.37
2019-02-02T07:51:38.338Z,27.13
2019-02-02T07:54:05.522Z,28.92
2019-02-02T07:56:33.682Z,25.90
2019-02-02T07:59:01.846Z,27.07
2019-02-02T08:01:39.294Z,28.50
2019-02-02T08:04:06.574Z,27.62
2019-02-02T08:06:33.631Z,26.80
2019-02-02T08:09:04.079Z,29.02
2019-02-02T08:11:31.614Z,28.75
2019-02-02T08:13:58.898Z,30.97
2019-02-02T08:16:26.086Z,28.62
2019-02-02T08:18:53.574Z,27.13
2019-02-02T08:21:21.087Z,29.32
2019-02-02T08:23:48.801Z,29.45
2019-02-02T08:26:17.595Z,29.67
2019-02-02T08:28:45.449Z,29.27
2019-02-02T08:31:13.992Z,29.27
2019-02-02T08:33:45.318Z,27.98
2019-02-02T08:36:12.934Z,28.70
2019-02-02T08:38:42.954Z,28.65
2019-02-02T08:41:11.752Z,27.13
2019-02-02T08:43:40.737Z,28.38
2019-02-02T08:46:08.886Z,29.18
2019-02-02T08:48:37.501Z,30.48
2019-02-02T08:51:06.330Z,31.30
2019-02-02T08:53:33.942Z,30.20
2019-02-02T08:56:02.491Z,29.85
2019-02-02T08:58:31.222Z,31.42
2019-02-02T09:01:04.160Z,29.20
2019-02-02T09:03:29.275Z,29.52
2019-02-02T09:05:57.766Z,29.45
2019-02-02T09:08:26.264Z,30.25
2019-02-02T09:10:54.426Z,31.82
2019-02-02T09:13:23.539Z,30.55
2019-02-02T09:15:51.812Z,28.70
2019-02-02T09:18:19.976Z,32.95
2019-02-02T09:20:48.227Z,31.35
2019-02-02T09:23:16.499Z,31.93
2019-02-02T09:25:44.802Z,32.50
2019-02-02T09:28:13.255Z,32.05
2019-02-02T09:30:40.559Z,31.17
2019-02-02T09:33:08.839Z,31.62
2019-02-02T09:35:36.845Z,32.95
2019-02-02T09:38:05.408Z,35.45
2019-02-02T09:40:33.467Z,32.25
2019-02-02T09:43:01.677Z,30.97
2019-02-02T09:45:29.843Z,32.50
2019-02-02T09:47:58.271Z,32.35
2019-02-02T09:50:27.142Z,33.15
2019-02-02T09:52:54.406Z,34.18
2019-02-02T09:55:23.113Z,35.58
2019-02-02T09:57:54.929Z,33.83
2019-02-02T10:00:28.381Z,32.05
2019-02-02T10:02:59.483Z,33.80
2019-02-02T10:05:27.379Z,33.30
2019-02-02T10:07:55.644Z,33.67
2019-02-02T10:10:24.648Z,32.93
2019-02-02T10:12:52.818Z,35.40
2019-02-02T10:15:21.278Z,31.82
2019-02-02T10:17:49.934Z,31.65
2019-02-02T10:20:21.158Z,35.52
2019-02-02T10:22:49.310Z,34.05
2019-02-02T10:25:19.877Z,31.82
2019-02-02T10:27:48.146Z,35.55
2019-02-02T10:30:22.927Z,34.73
2019-02-02T10:32:51.016Z,31.48
2019-02-02T10:35:19.311Z,33.33
2019-02-02T10:37:47.846Z,31.55
2019-02-02T10:40:17.386Z,32.95
2019-02-02T10:42:45.654Z,31.10
2019-02-02T10:45:14.018Z,32.40
2019-02-02T10:47:43.024Z,33.28
2019-02-02T10:50:13.155Z,32.20
2019-02-02T10:52:41.338Z,32.75
2019-02-02T10:55:10.834Z,31.95
2019-02-02T10:57:39.046Z,32.40
2019-02-02T11:00:19.075Z,32.95
2019-02-02T11:02:46.826Z,33.80
2019-02-02T11:05:14.402Z,31.73
2019-02-02T11:07:41.983Z,33.85
2019-02-02T11:10:13.010Z,33.08
2019-02-02T11:12:44.203Z,34.75
2019-02-02T11:15:13.071Z,31.65
2019-02-02T11:17:40.962Z,33.63
2019-02-02T11:20:11.780Z,31.82
2019-02-02T11:22:39.922Z,34.20
2019-02-02T11:25:09.100Z,33.45
2019-02-02T11:27:38.504Z,34.00
2019-02-02T11:30:09.082Z,33.92
2019-02-02T11:32:40.106Z,34.98
2019-02-02T11:35:09.375Z,35.68
2019-02-02T11:37:38.162Z,33.90
2019-02-02T11:40:09.100Z,35.50
2019-02-02T11:42:36.927Z,35.23
2019-02-02T11:45:05.042Z,31.23
2019-02-02T11:47:33.826Z,32.65
2019-02-02T11:50:02.266Z,34.18
2019-02-02T11:52:30.892Z,34.33
2019-02-02T11:54:59.062Z,34.85
2019-02-02T11:57:27.155Z,34.83
2019-02-02T11:59:55.231Z,36.68
2019-02-02T12:02:23.406Z,34.63
2019-02-02T12:04:51.982Z,33.30
2019-02-02T12:07:19.136Z,34.63
2019-02-02T12:09:47.350Z,33.98
2019-02-02T12:12:15.813Z,35.63
2019-02-02T12:14:44.086Z,33.42
2019-02-02T12:17:12.253Z,35.95
2019-02-02T12:19:40.607Z,36.70
2019-02-02T12:22:08.678Z,35.35
2019-02-02T12:24:37.097Z,35.83
2019-02-02T12:27:05.127Z,37.53
2019-02-02T12:29:34.586Z,34.48
2019-02-02T12:32:03.054Z,35.83
2019-02-02T12:34:30.838Z,36.03
2019-02-02T12:36:59.100Z,38.55
2019-02-02T12:39:27.382Z,35.48
2019-02-02T12:41:56.014Z,36.20
2019-02-02T12:44:24.239Z,36.15
2019-02-02T12:46:52.543Z,38.02
2019-02-02T12:49:20.820Z,36.80
2019-02-02T12:51:49.098Z,37.78
2019-02-02T12:54:17.363Z,37.13
2019-02-02T12:56:45.509Z,39.73
2019-02-02T12:59:13.823Z,38.13
2019-02-02T13:01:42.061Z,39.92
2019-02-02T13:04:09.222Z,39.05
2019-02-02T13:06:37.818Z,38.53
2019-02-02T13:09:08.226Z,41.15
2019-02-02T13:11:36.718Z,41.55
2019-02-02T13:14:04.883Z,40.90
2019-02-02T13:16:36.534Z,38.78
2019-02-02T13:19:03.858Z,39.83
2019-02-02T13:21:32.034Z,40.60
2019-02-02T13:24:00.436Z,41.18
2019-02-02T13:26:28.618Z,39.85
2019-02-02T13:28:57.370Z,40.40
2019-02-02T13:31:24.511Z,41.00
2019-02-02T13:33:52.673Z,39.38
2019-02-02T13:36:20.847Z,38.90
2019-02-02T13:38:49.054Z,38.23
2019-02-02T13:41:17.602Z,37.08
2019-02-02T13:43:44.654Z,39.63
2019-02-02T13:46:13.734Z,39.55
2019-02-02T13:48:41.898Z,38.23
2019-02-02T13:51:10.404Z,39.53
2019-02-02T13:53:38.649Z,37.10
2019-02-02T13:56:06.924Z,37.58
2019-02-02T13:58:36.588Z,36.83
2019-02-02T14:01:05.059Z,39.10
2019-02-02T14:03:34.379Z,38.28
2019-02-02T14:06:02.553Z,36.15
2019-02-02T14:08:30.955Z,40.12
2019-02-02T14:10:59.144Z,39.20
2019-02-02T14:13:27.472Z,38.08
2019-02-02T14:15:55.650Z,38.73
2019-02-02T14:18:24.443Z,40.15
2019-02-02T14:20:51.487Z,38.23
2019-02-02T14:23:19.651Z,38.25
2019-02-02T14:25:47.989Z,39.20
2019-02-02T14:28:28.102Z,39.18
2019-02-02T14:30:48.124Z,39.45
2019-02-02T14:33:15.450Z,40.58
2019-02-02T14:35:43.526Z,40.20
2019-02-02T14:38:12.185Z,40.33
2019-02-02T14:40:45.297Z,41.42
2019-02-02T14:43:12.453Z,43.15
2019-02-02T14:45:39.879Z,42.95
2019-02-02T14:48:07.056Z,41.85
2019-02-02T14:50:34.122Z,42.17
2019-02-02T14:53:01.494Z,39.53
2019-02-02T14:55:33.461Z,41.55
2019-02-02T14:58:01.946Z,41.98
2019-02-02T15:00:29.475Z,42.35
2019-02-02T15:02:57.865Z,40.20
2019-02-02T15:05:26.207Z,40.38
2019-02-02T15:08:01.968Z,39.70
2019-02-02T15:10:29.795Z,40.63
2019-02-02T15:12:57.769Z,40.67
2019-02-02T15:15:25.227Z,40.73
2019-02-02T15:17:53.679Z,41.68
2019-02-02T15:20:29.580Z,40.45
2019-02-02T15:23:00.243Z,44.85
2019-02-02T15:25:28.279Z,42.27
2019-02-02T15:27:55.740Z,40.67
2019-02-02T15:30:28.664Z,41.98
2019-02-02T15:32:57.705Z,40.23
2019-02-02T15:35:26.078Z,43.45
2019-02-02T15:37:53.848Z,43.48
2019-02-02T15:40:21.774Z,40.95
2019-02-02T15:42:49.920Z,42.00
2019-02-02T15:45:19.111Z,40.25
2019-02-02T15:47:56.458Z,41.70
2019-02-02T15:50:25.991Z,40.85
2019-02-02T15:52:53.857Z,41.15
2019-02-02T15:55:21.949Z,44.05
2019-02-02T15:57:49.588Z,42.10
2019-02-02T16:00:25.466Z,40.60
2019-02-02T16:02:53.795Z,40.05
2019-02-02T16:05:22.453Z,43.83
2019-02-02T16:07:50.994Z,40.67
2019-02-02T16:10:23.046Z,40.35
2019-02-02T16:12:51.762Z,41.10
2019-02-02T16:15:20.357Z,39.88
2019-02-02T16:17:48.698Z,39.40
2019-02-02T16:20:25.886Z,40.52
2019-02-02T16:22:54.671Z,41.95
2019-02-02T16:25:23.666Z,40.52
2019-02-02T16:27:51.134Z,41.20
2019-02-02T16:30:26.534Z,40.70
2019-02-02T16:32:54.599Z,42.40
2019-02-02T16:35:24.150Z,41.13
2019-02-02T16:37:52.794Z,40.30
2019-02-02T16:40:28.789Z,41.20
2019-02-02T16:42:56.297Z,43.58
2019-02-02T16:45:25.834Z,44.93
2019-02-02T16:47:54.870Z,45.60
2019-02-02T16:50:29.922Z,44.35
2019-02-02T16:52:57.238Z,43.00
2019-02-02T16:55:24.642Z,43.40
2019-02-02T16:57:52.290Z,41.55
2019-02-02T17:00:28.131Z,41.98
2019-02-02T17:02:55.536Z,42.45
2019-02-02T17:05:22.706Z,43.33
2019-02-02T17:07:49.895Z,41.75
2019-02-02T17:10:26.162Z,42.65
2019-02-02T17:12:53.326Z,42.00
2019-02-02T17:15:20.549Z,41.37
2019-02-02T17:17:49.215Z,39.38
2019-02-02T17:20:22.233Z,40.90
2019-02-02T17:22:49.418Z,42.53
2019-02-02T17:25:17.186Z,44.27
2019-02-02T17:27:44.891Z,44.45
2019-02-02T17:30:14.710Z,45.15
2019-02-02T17:32:45.302Z,42.45
2019-02-02T17:35:14.078Z,42.75
2019-02-02T17:37:42.799Z,45.70
2019-02-02T17:40:16.597Z,44.55
2019-02-02T17:42:44.053Z,45.70
2019-02-02T17:45:17.850Z,43.85
2019-02-02T17:47:45.168Z,45.33
2019-02-02T17:50:16.071Z,45.30
2019-02-02T17:52:43.279Z,45.15
2019-02-02T17:55:18.327Z,41.77
2019-02-02T17:57:46.046Z,43.33
2019-02-02T18:00:15.594Z,42.45
2019-02-02T18:02:44.234Z,44.58
2019-02-02T18:05:12.733Z,44.48
2019-02-02T18:07:47.512Z,44.98
2019-02-02T18:10:16.303Z,45.05
2019-02-02T18:12:44.578Z,45.03
2019-02-02T18:15:13.318Z,47.60
2019-02-02T18:17:41.652Z,46.60
2019-02-02T18:20:14.171Z,48.45
2019-02-02T18:22:42.450Z,51.13
2019-02-02T18:25:12.666Z,50.38
2019-02-02T18:27:41.214Z,52.95
2019-02-02T18:30:17.195Z,48.17
2019-02-02T18:32:46.413Z,48.42
2019-02-02T18:35:15.036Z,49.48
2019-02-02T18:37:43.250Z,48.58
2019-02-02T18:40:14.494Z,47.23
2019-02-02T18:42:46.547Z,46.63
2019-02-02T18:45:16.171Z,47.30
2019-02-02T18:47:44.363Z,50.65
2019-02-02T18:50:13.826Z,45.73
2019-02-02T18:52:48.594Z,51.40
2019-02-02T18:55:18.798Z,52.88
2019-02-02T18:57:47.120Z,47.60
2019-02-02T19:00:17.340Z,50.78
2019-02-02T19:02:51.407Z,47.98
2019-02-02T19:05:20.396Z,46.88
2019-02-02T19:07:49.395Z,47.23
2019-02-02T19:10:20.142Z,44.15
2019-02-02T19:12:49.002Z,46.85
2019-02-02T19:15:19.846Z,53.38
2019-02-02T19:17:48.814Z,49.20
2019-02-02T19:20:18.337Z,48.70
2019-02-02T19:22:49.452Z,48.13
2019-02-02T19:25:27.153Z,51.63
2019-02-02T19:27:58.030Z,51.02
2019-02-02T19:30:28.958Z,51.00
2019-02-02T19:33:00.583Z,50.80
2019-02-02T19:35:27.801Z,49.63
2019-02-02T19:37:54.966Z,48.02
2019-02-02T19:40:22.205Z,50.58
2019-02-02T19:42:50.606Z,50.67
2019-02-02T19:45:20.563Z,51.25
2019-02-02T19:47:52.100Z,53.92
2019-02-02T19:50:22.755Z,50.90
2019-02-02T19:52:51.300Z,54.10
2019-02-02T19:55:19.569Z,52.90
2019-02-02T19:57:47.914Z,50.55
2019-02-02T20:00:21.358Z,52.55
2019-02-02T20:02:50.139Z,53.95
2019-02-02T20:05:28.041Z,54.38
2019-02-02T20:07:49.418Z,53.25
2019-02-02T20:10:22.222Z,49.77
2019-02-02T20:12:50.509Z,54.10
2019-02-02T20:15:20.902Z,53.63
2019-02-02T20:17:49.131Z,54.40
2019-02-02T20:20:24.737Z,51.88
2019-02-02T20:22:52.442Z,51.95
2019-02-02T20:25:20.607Z,50.73
2019-02-02T20:27:48.895Z,51.50
2019-02-02T20:30:19.098Z,50.73
2019-02-02T20:32:49.697Z,52.03
2019-02-02T20:35:18.492Z,51.60
2019-02-02T20:37:47.203Z,53.45
2019-02-02T20:40:17.470Z,51.53
2019-02-02T20:42:45.652Z,49.98
2019-02-02T20:45:21.714Z,49.55
2019-02-02T20:47:48.982Z,48.90
2019-02-02T20:50:16.815Z,49.42
2019-02-02T20:52:47.457Z,51.00
2019-02-02T20:55:19.683Z,46.00
2019-02-02T20:57:47.273Z,46.77
2019-02-02T21:00:17.606Z,45.73
2019-02-02T21:02:45.917Z,45.20
2019-02-02T21:05:14.078Z,45.95
2019-02-02T21:07:46.310Z,43.45
2019-02-02T21:10:15.534Z,45.25
2019-02-02T21:12:43.822Z,44.55
2019-02-02T21:15:12.734Z,44.27
2019-02-02T21:17:41.230Z,41.60
2019-02-02T21:20:12.961Z,44.90
2019-02-02T21:22:41.217Z,42.48
2019-02-02T21:25:10.081Z,44.50
2019-02-02T21:27:38.258Z,43.75
2019-02-02T21:30:14.354Z,43.78
2019-02-02T21:32:42.513Z,46.13
2019-02-02T21:35:10.919Z,45.30
2019-02-02T21:37:39.501Z,43.23
2019-02-02T21:40:10.409Z,42.40
2019-02-02T21:42:43.767Z,41.53
2019-02-02T21:45:11.713Z,38.88
2019-02-02T21:47:40.470Z,43.80
2019-02-02T21:50:12.126Z,42.15
2019-02-02T21:52:40.583Z,42.27
2019-02-02T21:55:10.533Z,44.03
2019-02-02T21:57:38.702Z,42.90
2019-02-02T22:00:11.818Z,45.00
2019-02-02T22:02:40.602Z,40.65
2019-02-02T22:05:16.226Z,41.75
2019-02-02T22:07:43.985Z,43.28
2019-02-02T22:10:13.406Z,43.20
2019-02-02T22:12:41.989Z,40.67
2019-02-02T22:15:18.535Z,45.83
2019-02-02T22:17:47.436Z,45.90
2019-02-02T22:20:15.966Z,44.38
2019-02-02T22:22:44.490Z,42.15
2019-02-02T22:25:22.498Z,42.38
2019-02-02T22:27:49.741Z,43.17
2019-02-02T22:30:22.081Z,44.88
2019-02-02T22:32:51.267Z,42.60
2019-02-02T22:35:20.014Z,43.35
2019-02-02T22:37:49.890Z,45.75
2019-02-02T22:40:18.854Z,43.25
2019-02-02T22:42:46.686Z,44.45
2019-02-02T22:45:16.122Z,45.20
2019-02-02T22:47:49.083Z,43.55
2019-02-02T22:50:19.453Z,43.85
2019-02-02T22:52:48.039Z,47.03
2019-02-02T22:55:17.460Z,42.65
2019-02-02T22:57:45.672Z,44.53
2019-02-02T23:00:56.644Z,44.27
2019-02-02T23:03:30.158Z,44.18
2019-02-02T23:06:39.626Z,44.95
2019-02-02T23:09:55.291Z,41.30
2019-02-02T23:13:29.038Z,47.05
2019-02-02T23:16:25.495Z,45.23
2019-02-02T23:18:53.472Z,44.55
2019-02-02T23:21:20.926Z,46.23
2019-02-02T23:23:55.318Z,45.17
2019-02-02T23:26:22.668Z,48.25
2019-02-02T23:28:49.891Z,46.37
2019-02-02T23:31:17.090Z,43.68
2019-02-02T23:33:44.250Z,43.90
2019-02-02T23:36:16.638Z,45.48
2019-02-02T23:38:44.362Z,44.88
2019-02-02T23:41:11.657Z,45.00
2019-02-02T23:43:38.856Z,45.12
2019-02-02T23:46:06.346Z,44.20
2019-02-02T23:48:34.653Z,44.65
2019-02-02T23:51:02.565Z,48.60
2019-02-02T23:53:32.274Z,45.98
2019-02-02T23:55:59.518Z,49.38
2019-02-02T23:58:26.698Z,47.40
